Aviation Digital Data Service (ADDS)

Output produced by METARs form (1732 UTC 30 June 2016)
found at http://aviationweather.gov/adds/metars/
 
KLCH 301653Z 06007G14KT 10SM CLR 32/22 A2997 RMK AO2 SLP156 T03170217